Etoile, TX (75944)

9:49 PM CDT on August 29, 2016 (GMT -0500)
Sam Rayburn Reservoir - Etoile, Texas | | Change Station

Elev 202 ft 31.33 °N, 94.34 °W | Updated 2 hours ago

Rain
Rain
73.1 °F
Feels Like 73.1 °F
N
0.0
Wind Variable Wind from West
Gusts 0.0 mph

Today
High -- | Low -- °F
--% Chance of Precip.
Yesterday
High -- | Low -- °F
Precip. -- in
Pressure 29.98 in
Visibility 10.0 miles
Clouds Clear
Dew Point 71 °F
Humidity 93%
Rainfall 0.29 in
Snow Depth Not available.
6:52 AM 7:44 PM
Waning Crescent, 5% visible
METAR KLFK 300153Z AUTO 05003KT 10SM CLR 22/21 A2999 RMK AO2 RAB18E27 SLP151 P0000 T02220211 $
Pressure 29.98 in
Visibility 10.0 miles
Clouds Clear
Dew Point 71 °F
Humidity 93%
Rainfall 0.29 in
Snow Depth Not available.
6:52 AM 7:44 PM
Waning Crescent, 5% visible
METAR KLFK 300153Z AUTO 05003KT 10SM CLR 22/21 A2999 RMK AO2 RAB18E27 SLP151 P0000 T02220211 $
Tropical Depression Nine was centered about 170 miles west-southwest of Key West, Florida, as of late Monday morning. The depression may struggle a bit in the southern Gulf of Mexico before finally making a Gulf Coast landfall later this week with soaking rain and gusty winds.

This latest system was designated a tropical depression Sunday after a Hurricane Hunter reconnaissance mission finally found a sufficiently organized low-pressure center with collocated shower and thunderstorm activity.

10-Day Weather Forecast

Almanac

Astronomy

Aug. 29, 2016 Rise Set
Actual Time
Civil Twilight
Nautical Twilight
Astronomical Twilight
Moon
Length of Visible Light
Length of Day
Tomorrow will be .
, % of the Moon is Illuminated

Today's Extremes

State Highs State Lows

Community

WunderPhotos

Upload Photos

1,935,747 photos uploaded!

WunderBlog® & News

Nearby

Air Quality

  Air Quality AQ Index Pollutant
Not available.

Snow Depth

Station Depth Elevation

Earthquake Activity

City Distance Mag. Time & Date
Minimum magnitude displayed is 2.5.

Coastal Water Temperatures

Place Temperature

Stations

Nearby Weather Stations

Station Location Temp. Windchill Dew Point Humidity Wind Precip. Elev Updated Type
                   

Watches & Warnings

There are currently no watches in effect.